Portada
METAR-TAF:

METAR-TAF

Aeroports :

Djibouti, Djibouti

latitud: 11-33N, longitud: 043-10E, altitud: 49 m

Observació

L'informe es va fer fa 7 hores i 6 minuts, a les 13:00 UTC
Vent 10 kt del Est/Nord-Est
Temperatura 29°C
Humitat 66%
Pressió 1012 hPa
Visibilitat 10 km o més
Escasses núvols a una alçada de 2300 ft

METAR: HDAM 221300Z 07010KT 9999 FEW023 29/22 Q1012

Hora: 23:06 (20:06 UTC)

Pronòstic

L'informe es va fer fa 3 hores i 6 minuts, a les 17:00 UTC
Pronòstic vàlid del 22 a les 18 UTC al 23 a les 18 UTC
Vent 3 kt amb direcció variable
Visibilitat 10 km o més
Escasses núvols a una alçada de 2000 ft
Evolucionant progressivament
l' 23 a les 00 UTC al 23 a les 06 UTC
Vent kt del Nord
Núvols disperses a una alçada de 2000 ft
Evolucionant progressivament
l' 23 a les 06 UTC al 23 a les 12 UTC
Vent 10 kt del Est
Núvols disperses a una alçada de 2000 ft

TAF: HDAM 221700Z 2218/2318 VRB03KT 9999 FEW020 BECMG 2300/2306 00000KT SCT020 BECMG 2306/2312 10010KT SCT020 SCT030-

Observacions i pronòstics meteorològics de més de 4000 aeroports (METAR i TAF).

Les estacions disponibles són els punts grocs i vermells al mapa.

Posi el ratolí al punt desitjat per veure el nom de l'estació.

Feu clic per veure les observacions i els pronòstics meteorològics.

Per canviar el mapa: feu clic els botons verds amb una creu de color negre per apropar; al botó verd amb un guió per allunyar la imatge; o en les fletxes verdes per a mapes adjacents.


METAR-TAF: